sensor_id;sensor_type;location;lat;lon;timestamp;pressure;altitude;pressure_sealevel;temperature;humidity
46382;BME280;66809;52.974;-2.514;2023-04-09T00:01:53;1016.8486060079957;;;7.409764984240917;34.607650056366964
46382;BME280;66809;52.974;-2.514;2023-04-09T00:03:52;1016.8347525440902;;;7.385051469374586;34.667169420700425
46382;BME280;66809;52.974;-2.514;2023-04-09T00:05:53;1016.8221207723522;;;7.362816503034117;34.72265144347663
46382;BME280;66809;52.974;-2.514;2023-04-09T00:07:52;1016.8113203570521;;;7.344286751360142;34.770182907680194
46382;BME280;66809;52.974;-2.514;2023-04-09T00:09:52;1016.8003464679117;;;7.328732315585175;34.82591475761101
46382;BME280;66809;52.974;-2.514;2023-04-09T00:11:53;1016.789193390423;;;7.310953305016798;34.875392643912065
46382;BME280;66809;52.974;-2.514;2023-04-09T00:13:52;1016.7768639873896;;;7.290829127274752;34.92532897483535
46382;BME280;66809;52.974;-2.514;2023-04-09T00:15:52;1016.7635251669984;;;7.267018479424265;34.97252027671502
46382;BME280;66809;52.974;-2.514;2023-04-09T00:17:53;1016.7501407397069;;;7.259655794123485;35.02027766765585
46382;BME280;66809;52.974;-2.514;2023-04-09T00:19:52;1016.7385352469942;;;7.245186024803734;35.06186745780672
46382;BME280;66809;52.974;-2.514;2023-04-09T00:21:54;1016.7272428346433;;;7.234884618356011;35.10609472460199
46382;BME280;66809;52.974;-2.514;2023-04-09T00:23:52;1016.7172372774642;;;7.216200152306522;35.157653357392164
46382;BME280;66809;52.974;-2.514;2023-04-09T00:25:53;1016.7043534648833;;;7.195118199718081;35.20844156146064
46382;BME280;66809;52.974;-2.514;2023-04-09T00:27:52;1016.6922668397826;;;7.17850408682487;35.26127850477816
46382;BME280;66809;52.974;-2.514;2023-04-09T00:29:53;1016.681068648946;;;7.170268701697702;35.316475547510244
46382;BME280;66809;52.974;-2.514;2023-04-09T00:31:52;1016.6707520875152;;;7.150338874121511;35.375088342976376
46382;BME280;66809;52.974;-2.514;2023-04-09T00:33:52;1016.662323611081;;;7.137307984855604;35.4361215297814
46382;BME280;66809;52.974;-2.514;2023-04-09T00:35:53;1016.6546877488724;;;7.1189295097271055;35.49460922589819
46382;BME280;66809;52.974;-2.514;2023-04-09T00:37:52;1016.6483197329411;;;7.0991666392276604;35.55112879636419
46382;BME280;66809;52.974;-2.514;2023-04-09T00:39:53;1016.6406523866174;;;7.091966577611703;35.6050056474664
46382;BME280;66809;52.974;-2.514;2023-04-09T00:41:55;1016.6324303800632;;;7.090032535820254;35.66062647340594
46382;BME280;66809;52.974;-2.514;2023-04-09T00:43:55;1016.6238308936838;;;7.074406330167501;35.71691291237285
46382;BME280;66809;52.974;-2.514;2023-04-09T00:45:53;1016.61459276372;;;7.050115741807682;35.767616257078636
46382;BME280;66809;52.974;-2.514;2023-04-09T00:47:52;1016.6057851173083;;;7.038258950442239;35.81909221386875
46382;BME280;66809;52.974;-2.514;2023-04-09T00:49:53;1016.5982891334149;;;7.039931169092358;35.87036199668656
46382;BME280;66809;52.974;-2.514;2023-04-09T00:51:53;1016.5919749610196;;;7.036191562882783;35.91792898951158
46382;BME280;66809;52.974;-2.514;2023-04-09T00:53:53;1016.5856305201735;;;7.030637173419527;35.9690165828586
46382;BME280;66809;52.974;-2.514;2023-04-09T00:55:52;1016.5774495302129;;;7.02678834600165;36.01775298538392
46382;BME280;66809;52.974;-2.514;2023-04-09T00:57:52;1016.5695745628133;;;7.0147654143949065;36.06266925268066
46382;BME280;66809;52.974;-2.514;2023-04-09T00:59:53;1016.5598371892683;;;7.009347356986868;36.10445893955399
46382;BME280;66809;52.974;-2.514;2023-04-09T01:01:52;1016.5476717456982;;;7.011026898449861;36.14515769592002
46382;BME280;66809;52.974;-2.514;2023-04-09T01:03:53;1016.5350239199375;;;7.017691670335205;36.17949121615695
46382;BME280;66809;52.974;-2.514;2023-04-09T01:05:58;1016.5217932710815;;;7.025700724927798;36.2083574941667
46382;BME280;66809;52.974;-2.514;2023-04-09T01:08:03;1016.5070931078438;;;7.018418292841655;36.237215509678045
46382;BME280;66809;52.974;-2.514;2023-04-09T01:09:57;1016.4924103085907;;;7.011015254733197;36.26255498502477
46382;BME280;66809;52.974;-2.514;2023-04-09T01:12:00;1016.4764709391436;;;7.006486708601317;36.294149124186575
46382;BME280;66809;52.974;-2.514;2023-04-09T01:13:57;1016.4610330935714;;;7.009006437837211;36.32527565796319
46382;BME280;66809;52.974;-2.514;2023-04-09T01:15:55;1016.446031160858;;;7.017366480070069;36.35620560768213
46382;BME280;66809;52.974;-2.514;2023-04-09T01:17:58;1016.4315729513625;;;7.007118230877426;36.38351579221795
46382;BME280;66809;52.974;-2.514;2023-04-09T01:19:59;1016.4169220238796;;;6.987820197655278;36.41454963952057
46382;BME280;66809;52.974;-2.514;2023-04-09T01:21:55;1016.4021154194688;;;6.97563954481552;36.43992144205724
46382;BME280;66809;52.974;-2.514;2023-04-09T01:24:01;1016.385936505218;;;6.977144554440474;36.45893944799564
46382;BME280;66809;52.974;-2.514;2023-04-09T01:26:01;1016.3710541700908;;;6.9747836629259155;36.478823502484715
46382;BME280;66809;52.974;-2.514;2023-04-09T01:28:17;1016.3554311932887;;;6.983364041307275;36.493353253615155
46382;BME280;66809;52.974;-2.514;2023-04-09T01:29:52;1016.3376542495945;;;6.971123483858338;36.50602569894541
46382;BME280;66809;52.974;-2.514;2023-04-09T01:31:53;1016.3191466918088;;;6.969485143562999;36.51879302294182
46382;BME280;66809;52.974;-2.514;2023-04-09T01:33:53;1016.2986431051702;;;6.961535993812929;36.526498807485474
46382;BME280;66809;52.974;-2.514;2023-04-09T01:35:53;1016.2777126648274;;;6.967831100487468;36.5359723950249
46382;BME280;66809;52.974;-2.514;2023-04-09T01:37:53;1016.2569930484511;;;6.965530122283181;36.547021179441074
46382;BME280;66809;52.974;-2.514;2023-04-09T01:39:53;1016.2379635841442;;;6.955019540975323;36.56119804854294
46382;BME280;66809;52.974;-2.514;2023-04-09T01:41:52;1016.2210123602667;;;6.9499262030549716;36.57390913132743
46382;BME280;66809;52.974;-2.514;2023-04-09T01:43:53;1016.2051580919126;;;6.944793842719701;36.58779167976081
46382;BME280;66809;52.974;-2.514;2023-04-09T01:45:53;1016.1901463791611;;;6.949801604727444;36.59963072044372
46382;BME280;66809;52.974;-2.514;2023-04-09T01:47:53;1016.1748836581187;;;6.9496002894202045;36.61363903943308
46382;BME280;66809;52.974;-2.514;2023-04-09T01:49:53;1016.1598339691476;;;6.931612162835614;36.63086908478818
46382;BME280;66809;52.974;-2.514;2023-04-09T01:51:53;1016.1430278895108;;;6.906380632256934;36.65365744105229
46382;BME280;66809;52.974;-2.514;2023-04-09T01:53:53;1016.1260289593721;;;6.8974235979921685;36.67079716705171
46382;BME280;66809;52.974;-2.514;2023-04-09T01:55:52;1016.1100408512807;;;6.886178309003219;36.69164391396207
46382;BME280;66809;52.974;-2.514;2023-04-09T01:57:52;1016.093610043904;;;6.884723253083064;36.7139580284018
46382;BME280;66809;52.974;-2.514;2023-04-09T01:59:53;1016.0791680321191;;;6.866254352314731;36.73851542955434
46382;BME280;66809;52.974;-2.514;2023-04-09T02:01:54;1016.0659580083153;;;6.854726389443273;36.76111967742994
46382;BME280;66809;52.974;-2.514;2023-04-09T02:03:55;1016.0532698546598;;;6.8380218494699445;36.78274896651115
46382;BME280;66809;52.974;-2.514;2023-04-09T02:05:56;1016.0425258700031;;;6.818344972520772;36.80573464590663
46382;BME280;66809;52.974;-2.514;2023-04-09T02:07:55;1016.0323172249945;;;6.815690347376401;36.8319255218749
46382;BME280;66809;52.974;-2.514;2023-04-09T02:09:53;1016.023075517466;;;6.810197821058321;36.850119333087946
46382;BME280;66809;52.974;-2.514;2023-04-09T02:11:53;1016.0154385418081;;;6.805080386579921;36.86898796291704
46382;BME280;66809;52.974;-2.514;2023-04-09T02:13:53;1016.007476910398;;;6.798427316496188;36.88890997277372
46382;BME280;66809;52.974;-2.514;2023-04-09T02:15:53;1015.999678894267;;;6.787530264204205;36.90687838028486
46382;BME280;66809;52.974;-2.514;2023-04-09T02:17:52;1015.9920318639146;;;6.787344649189325;36.926306064452014
46382;BME280;66809;52.974;-2.514;2023-04-09T02:19:52;1015.9842583684226;;;6.792822909864656;36.94602466809553
46382;BME280;66809;52.974;-2.514;2023-04-09T02:21:53;1015.9752881528274;;;6.792855741056484;36.964670975408396
46382;BME280;66809;52.974;-2.514;2023-04-09T02:23:53;1015.9667025996985;;;6.784327977655033;36.981653758260535
46382;BME280;66809;52.974;-2.514;2023-04-09T02:25:53;1015.9585644134943;;;6.783514110440982;36.99385770844021
46382;BME280;66809;52.974;-2.514;2023-04-09T02:27:52;1015.9517066817879;;;6.77868310841886;37.003426016702505
46382;BME280;66809;52.974;-2.514;2023-04-09T02:29:52;1015.9473912985806;;;6.780078898566551;37.01542509544687
46382;BME280;66809;52.974;-2.514;2023-04-09T02:31:53;1015.9443903514931;;;6.776970254540851;37.02400946510262
46382;BME280;66809;52.974;-2.514;2023-04-09T02:33:52;1015.9422344330577;;;6.764164903234547;37.03670102712174
46382;BME280;66809;52.974;-2.514;2023-04-09T02:35:53;1015.9389072931623;;;6.762239029312279;37.05211432191137
46382;BME280;66809;52.974;-2.514;2023-04-09T02:37:52;1015.9352229429894;;;6.762591137491171;37.07270048914371
46382;BME280;66809;52.974;-2.514;2023-04-09T02:39:52;1015.9307140824292;;;6.745652148152658;37.09338418451952
46382;BME280;66809;52.974;-2.514;2023-04-09T02:41:53;1015.9264774777881;;;6.731545659997323;37.11543969789014
46382;BME280;66809;52.974;-2.514;2023-04-09T02:43:52;1015.9229084102105;;;6.717119911299042;37.13710307788664
46382;BME280;66809;52.974;-2.514;2023-04-09T02:45:53;1015.9197580597179;;;6.703416711228209;37.159444546353065
46382;BME280;66809;52.974;-2.514;2023-04-09T02:47:52;1015.9167189408747;;;6.69091496274499;37.18537677767283
46382;BME280;66809;52.974;-2.514;2023-04-09T02:49:52;1015.9122695158036;;;6.677907253109644;37.21054810710833
46382;BME280;66809;52.974;-2.514;2023-04-09T02:51:53;1015.9087059564462;;;6.665625080358191;37.236202995522795
46382;BME280;66809;52.974;-2.514;2023-04-09T02:53:52;1015.905157819832;;;6.65337352695283;37.267398855918074
46382;BME280;66809;52.974;-2.514;2023-04-09T02:55:52;1015.9015640475923;;;6.637805164508499;37.29518386520956
46382;BME280;66809;52.974;-2.514;2023-04-09T02:57:53;1015.898244856839;;;6.62761203345713;37.32218610852748
46382;BME280;66809;52.974;-2.514;2023-04-09T02:59:52;1015.8950481105601;;;6.625804929016805;37.34723292407341
46382;BME280;66809;52.974;-2.514;2023-04-09T03:01:53;1015.8918755268453;;;6.617787836283548;37.37208868553786
46382;BME280;66809;52.974;-2.514;2023-04-09T03:03:54;1015.888715701665;;;6.6080483934816465;37.39967508234296
46382;BME280;66809;52.974;-2.514;2023-04-09T03:05:53;1015.8829732176396;;;6.5991808663413245;37.42581906601901
46382;BME280;66809;52.974;-2.514;2023-04-09T03:07:53;1015.8768758995877;;;6.583257775254601;37.44982676029445
46382;BME280;66809;52.974;-2.514;2023-04-09T03:09:52;1015.8697444367681;;;6.564738566222581;37.478316128368576
46382;BME280;66809;52.974;-2.514;2023-04-09T03:11:52;1015.8612993349954;;;6.557749314870628;37.50866047678672
46382;BME280;66809;52.974;-2.514;2023-04-09T03:13:53;1015.8530829179876;;;6.538169637312127;37.54085900311236
46382;BME280;66809;52.974;-2.514;2023-04-09T03:15:52;1015.8447317520197;;;6.507444621548222;37.574329407548426
46382;BME280;66809;52.974;-2.514;2023-04-09T03:17:52;1015.8357893823616;;;6.489644243106359;37.61032979963265
46382;BME280;66809;52.974;-2.514;2023-04-09T03:19:53;1015.8253519309202;;;6.464259000490702;37.65799103188446
46382;BME280;66809;52.974;-2.514;2023-04-09T03:21:52;1015.8162447308605;;;6.442812300328318;37.70517022813081
46382;BME280;66809;52.974;-2.514;2023-04-09T03:23:53;1015.8064220226346;;;6.415704709212064;37.75507837728057
46382;BME280;66809;52.974;-2.514;2023-04-09T03:26:00;1015.7960260917974;;;6.390678865883859;37.80646428430429
46382;BME280;66809;52.974;-2.514;2023-04-09T03:27:52;1015.784419346732;;;6.365804239417997;37.86155773508727
46382;BME280;66809;52.974;-2.514;2023-04-09T03:29:54;1015.7696717842762;;;6.341022031522497;37.9147995202212
46382;BME280;66809;52.974;-2.514;2023-04-09T03:31:52;1015.7540303733138;;;6.309118892968816;37.96628628728743
46382;BME280;66809;52.974;-2.514;2023-04-09T03:33:53;1015.7380889205072;;;6.298279232951381;38.01443974985509
46382;BME280;66809;52.974;-2.514;2023-04-09T03:35:52;1015.722827725742;;;6.279842179827755;38.05178675001605
46382;BME280;66809;52.974;-2.514;2023-04-09T03:37:53;1015.7063523492131;;;6.263707208566213;38.08940692928398
46382;BME280;66809;52.974;-2.514;2023-04-09T03:39:52;1015.689423657262;;;6.265574496704827;38.12496939325409
46382;BME280;66809;52.974;-2.514;2023-04-09T03:41:52;1015.672324860385;;;6.252306371023822;38.16070538114898
46382;BME280;66809;52.974;-2.514;2023-04-09T03:43:52;1015.6534830907515;;;6.242382119015627;38.19195799816374
46382;BME280;66809;52.974;-2.514;2023-04-09T03:45:52;1015.6334962331283;;;6.230552533685162;38.2183445430102
46382;BME280;66809;52.974;-2.514;2023-04-09T03:47:53;1015.6134878415344;;;6.219008609682132;38.23986625078377
46382;BME280;66809;52.974;-2.514;2023-04-09T03:49:52;1015.5960011165997;;;6.210371676901997;38.26011125303796
46382;BME280;66809;52.974;-2.514;2023-04-09T03:51:52;1015.5782885843505;;;6.210426788971561;38.28006442645176
46382;BME280;66809;52.974;-2.514;2023-04-09T03:53:52;1015.5598668051301;;;6.211187641124585;38.298265722597186
46382;BME280;66809;52.974;-2.514;2023-04-09T03:55:52;1015.5401324376448;;;6.212363166678373;38.31569216884445
46382;BME280;66809;52.974;-2.514;2023-04-09T03:57:53;1015.5187239146615;;;6.202339958479589;38.33700602882599
46382;BME280;66809;52.974;-2.514;2023-04-09T03:59:53;1015.4963479364745;;;6.188804846151212;38.359496330800965
46382;BME280;66809;52.974;-2.514;2023-04-09T04:01:52;1015.472197023923;;;6.184927968757949;38.386068917353946
46382;BME280;66809;52.974;-2.514;2023-04-09T04:03:53;1015.4474941180918;;;6.173451267415748;38.409428531433925
46382;BME280;66809;52.974;-2.514;2023-04-09T04:05:53;1015.4251152371813;;;6.169441814949023;38.43093462307329
46382;BME280;66809;52.974;-2.514;2023-04-09T04:07:53;1015.4035246212301;;;6.160705914335899;38.4504822313908
46382;BME280;66809;52.974;-2.514;2023-04-09T04:09:52;1015.3817182040203;;;6.167971520588116;38.46524873461993
46382;BME280;66809;52.974;-2.514;2023-04-09T04:11:53;1015.3598508508993;;;6.161079288403786;38.474461381192334
46382;BME280;66809;52.974;-2.514;2023-04-09T04:13:52;1015.3358286214979;;;6.167256375425472;38.47802679500258
46382;BME280;66809;52.974;-2.514;2023-04-09T04:15:52;1015.3114358895612;;;6.18966836806367;38.48080857774599
46382;BME280;66809;52.974;-2.514;2023-04-09T04:17:53;1015.2869260417605;;;6.196418624696357;38.47813797432091
46382;BME280;66809;52.974;-2.514;2023-04-09T04:19:52;1015.2641506279061;;;6.207873822382191;38.454754942123806
46382;BME280;66809;52.974;-2.514;2023-04-09T04:21:52;1015.241225557327;;;6.2183712219845875;38.431082583940295
46382;BME280;66809;52.974;-2.514;2023-04-09T04:23:52;1015.2185841115241;;;6.232798758803801;38.40789945259857
46382;BME280;66809;52.974;-2.514;2023-04-09T04:25:52;1015.1955082934275;;;6.233955331510705;38.39124030626229
46382;BME280;66809;52.974;-2.514;2023-04-09T04:27:53;1015.1723147114267;;;6.241619511436175;38.37876783928255
46382;BME280;66809;52.974;-2.514;2023-04-09T04:29:52;1015.1507222632725;;;6.258799099361869;38.36367106371138
46382;BME280;66809;52.974;-2.514;2023-04-09T04:31:52;1015.1293448821863;;;6.265102211003085;38.35013128466532
46382;BME280;66809;52.974;-2.514;2023-04-09T04:33:53;1015.1070347904891;;;6.270960034002542;38.32774551366398
46382;BME280;66809;52.974;-2.514;2023-04-09T04:35:52;1015.0851279333413;;;6.268955731091356;38.31314298777043
46382;BME280;66809;52.974;-2.514;2023-04-09T04:37:53;1015.0650352667813;;;6.267539543576474;38.29581949217911
46382;BME280;66809;52.974;-2.514;2023-04-09T04:39:52;1015.0458726882142;;;6.260496077677558;38.277916560616674
46382;BME280;66809;52.974;-2.514;2023-04-09T04:41:52;1015.0263189341048;;;6.2688959094428425;38.253123910302214
46382;BME280;66809;52.974;-2.514;2023-04-09T04:43:52;1015.0079848692152;;;6.268139758389619;38.22941322554712
46382;BME280;66809;52.974;-2.514;2023-04-09T04:45:52;1014.9911369156426;;;6.278468281355365;38.21348563807541
46382;BME280;66809;52.974;-2.514;2023-04-09T04:47:52;1014.9748438103356;;;6.281900876146873;38.19844051967129
46382;BME280;66809;52.974;-2.514;2023-04-09T04:49:53;1014.9564537823625;;;6.284274863189404;38.18612049787359
46382;BME280;66809;52.974;-2.514;2023-04-09T04:51:52;1014.9385144986638;;;6.2869849190782885;38.17292504723909
46382;BME280;66809;52.974;-2.514;2023-04-09T04:53:52;1014.9203854346662;;;6.282614209543322;38.16333020323815
46382;BME280;66809;52.974;-2.514;2023-04-09T04:55:53;1014.9040939580897;;;6.278277107475123;38.14955919251858
46382;BME280;66809;52.974;-2.514;2023-04-09T04:57:53;1014.8906372174638;;;6.27500701813658;38.13218994603769
46382;BME280;66809;52.974;-2.514;2023-04-09T04:59:52;1014.8778229006618;;;6.280815453332274;38.112491622466706
46382;BME280;66809;52.974;-2.514;2023-04-09T05:01:53;1014.868128846363;;;6.263871138851524;38.093094926261486
46382;BME280;66809;52.974;-2.514;2023-04-09T05:03:52;1014.858049369826;;;6.259263352826347;38.07788003348994
46382;BME280;66809;52.974;-2.514;2023-04-09T05:05:52;1014.8457715285974;;;6.250397759975007;38.06130537761856
46382;BME280;66809;52.974;-2.514;2023-04-09T05:07:53;1014.8321937015584;;;6.252509457178241;38.03452461851331
46382;BME280;66809;52.974;-2.514;2023-04-09T05:09:52;1014.8192026388352;;;6.238888510973429;38.013883128223384
46382;BME280;66809;52.974;-2.514;2023-04-09T05:11:52;1014.8044639794405;;;6.220344183013497;37.992869215151735
46382;BME280;66809;52.974;-2.514;2023-04-09T05:13:53;1014.7905182511109;;;6.210685132479777;37.97176089578595
46382;BME280;66809;52.974;-2.514;2023-04-09T05:15:52;1014.7773146584866;;;6.184194661165376;37.952021767705524
46382;BME280;66809;52.974;-2.514;2023-04-09T05:17:52;1014.7651237224305;;;6.161012592210473;37.93384173335711
46382;BME280;66809;52.974;-2.514;2023-04-09T05:19:53;1014.7527538650795;;;6.145457383075185;37.91507348885022
46382;BME280;66809;52.974;-2.514;2023-04-09T05:21:52;1014.7398870459167;;;6.129139469085007;37.89434882928415
46382;BME280;66809;52.974;-2.514;2023-04-09T05:23:52;1014.7255168334157;;;6.111092654095969;37.87419480586118
46382;BME280;66809;52.974;-2.514;2023-04-09T05:25:53;1014.7112229000678;;;6.105276838978186;37.84798539350249
46382;BME280;66809;52.974;-2.514;2023-04-09T05:27:52;1014.6977734089996;;;6.094247276928198;37.819815355788215
46382;BME280;66809;52.974;-2.514;2023-04-09T05:29:53;1014.685100920802;;;6.0761808032425355;37.79027352379584
46382;BME280;66809;52.974;-2.514;2023-04-09T05:31:53;1014.670730416957;;;6.074819729318992;37.7559551713
46382;BME280;66809;52.974;-2.514;2023-04-09T05:33:52;1014.6576950650265;;;6.076374042781692;37.72541402709637
46382;BME280;66809;52.974;-2.514;2023-04-09T05:35:53;1014.6436928713977;;;6.076381311428553;37.69106180997499
46382;BME280;66809;52.974;-2.514;2023-04-09T05:37:53;1014.6286045026502;;;6.078290351641438;37.65408099677722
46382;BME280;66809;52.974;-2.514;2023-04-09T05:39:52;1014.6136915748942;;;6.086145935193884;37.61310836098003
46382;BME280;66809;52.974;-2.514;2023-04-09T05:41:52;1014.5972410817807;;;6.0878887948321445;37.569784737219486
46382;BME280;66809;52.974;-2.514;2023-04-09T05:43:53;1014.578566234063;;;6.097527386643468;37.52547682218986
46382;BME280;66809;52.974;-2.514;2023-04-09T05:45:52;1014.5577355642206;;;6.096894416546206;37.47494976465433
46382;BME280;66809;52.974;-2.514;2023-04-09T05:47:52;1014.5347349622978;;;6.102947329300404;37.42344714191646
46382;BME280;66809;52.974;-2.514;2023-04-09T05:49:53;1014.5124452020177;;;6.1105293410095465;37.37321124826674
46382;BME280;66809;52.974;-2.514;2023-04-09T05:51:52;1014.4919331948555;;;6.111921156156348;37.324738790455655
46382;BME280;66809;52.974;-2.514;2023-04-09T05:53:52;1014.4745091384731;;;6.112523208476042;37.27773642612824
46382;BME280;66809;52.974;-2.514;2023-04-09T05:55:53;1014.4579508415094;;;6.117828352539208;37.23432577869019
46382;BME280;66809;52.974;-2.514;2023-04-09T05:57:52;1014.442503670296;;;6.116960108693742;37.19364649039541
46382;BME280;66809;52.974;-2.514;2023-04-09T05:59:53;1014.427728593694;;;6.117049650825178;37.14956154882952
46382;BME280;66809;52.974;-2.514;2023-04-09T06:01:52;1014.4113465714859;;;6.119172389516854;37.11160062933525
46382;BME280;66809;52.974;-2.514;2023-04-09T06:03:52;1014.3969971026056;;;6.121807627579517;37.07043325643615
46382;BME280;66809;52.974;-2.514;2023-04-09T06:05:53;1014.38647035873;;;6.126314596102139;37.037147744042194
46382;BME280;66809;52.974;-2.514;2023-04-09T06:07:52;1014.3796285339087;;;6.127015614600932;37.016601810752235
46382;BME280;66809;52.974;-2.514;2023-04-09T06:09:54;1014.3743867292302;;;6.126676663655616;36.990989571558885
46382;BME280;66809;52.974;-2.514;2023-04-09T06:11:52;1014.3709274003467;;;6.140707438847892;36.966834723228345
46382;BME280;66809;52.974;-2.514;2023-04-09T06:13:52;1014.3706009684712;;;6.148926102077206;36.94627911244095
46382;BME280;66809;52.974;-2.514;2023-04-09T06:15:53;1014.3719988244709;;;6.156314840890059;36.92541527677054
46382;BME280;66809;52.974;-2.514;2023-04-09T06:17:52;1014.3736969348716;;;6.164316907705651;36.898810532735176
46382;BME280;66809;52.974;-2.514;2023-04-09T06:19:53;1014.3761168038225;;;6.175182114573109;36.879009860445166
46382;BME280;66809;52.974;-2.514;2023-04-09T06:21:52;1014.3794289735944;;;6.181789525027926;36.86260544769023
46382;BME280;66809;52.974;-2.514;2023-04-09T06:23:52;1014.3831958808886;;;6.1990885890005645;36.84386026507442
46382;BME280;66809;52.974;-2.514;2023-04-09T06:25:53;1014.3868985765254;;;6.218782155132455;36.83113044369814
46382;BME280;66809;52.974;-2.514;2023-04-09T06:27:52;1014.389916343871;;;6.2349908896642985;36.811093663549194
46382;BME280;66809;52.974;-2.514;2023-04-09T06:29:53;1014.3926923756851;;;6.248217025208947;36.791650848185704
46382;BME280;66809;52.974;-2.514;2023-04-09T06:31:52;1014.3967318075788;;;6.26953869046932;36.775419680605644
46382;BME280;66809;52.974;-2.514;2023-04-09T06:33:52;1014.4018106680894;;;6.276680888263595;36.77066359016698
46382;BME280;66809;52.974;-2.514;2023-04-09T06:35:53;1014.4062510232735;;;6.288201506382706;36.76999956126467
46382;BME280;66809;52.974;-2.514;2023-04-09T06:37:52;1014.4103604037402;;;6.303953612628081;36.7737871972948
46382;BME280;66809;52.974;-2.514;2023-04-09T06:39:53;1014.414316288683;;;6.3110713967783125;36.77861103518815
46382;BME280;66809;52.974;-2.514;2023-04-09T06:41:52;1014.4194285903569;;;6.339630759836641;36.78544559706379
46382;BME280;66809;52.974;-2.514;2023-04-09T06:43:53;1014.4250317389956;;;6.369481015142792;36.79294845002796
46382;BME280;66809;52.974;-2.514;2023-04-09T06:45:52;1014.430224776595;;;6.402255077021015;36.80442565720001
46382;BME280;66809;52.974;-2.514;2023-04-09T06:47:52;1014.4369638711294;;;6.426327609605101;36.81459914340145
46382;BME280;66809;52.974;-2.514;2023-04-09T06:49:52;1014.4434955037286;;;6.455241462971931;36.81839353225908
46382;BME280;66809;52.974;-2.514;2023-04-09T06:51:53;1014.4470456282792;;;6.50719024719983;36.81376964936256
46382;BME280;66809;52.974;-2.514;2023-04-09T06:53:52;1014.4486670082701;;;6.551227283316677;36.80258662081845
46382;BME280;66809;52.974;-2.514;2023-04-09T06:55:53;1014.4493668684499;;;6.606539556176832;36.792887802438784
46382;BME280;66809;52.974;-2.514;2023-04-09T06:57:52;1014.4494373137516;;;6.670704365984446;36.76596531822379
46382;BME280;66809;52.974;-2.514;2023-04-09T06:59:52;1014.4498598030261;;;6.740350130794991;36.73869939466667
46382;BME280;66809;52.974;-2.514;2023-04-09T07:01:53;1014.4496979256013;;;6.8199753306432855;36.703921183986004
46382;BME280;66809;52.974;-2.514;2023-04-09T07:03:52;1014.4468367346607;;;6.899055338258184;36.67034295299235
46382;BME280;66809;52.974;-2.514;2023-04-09T07:05:53;1014.4388917312243;;;6.977970186640984;36.62641213631412
46382;BME280;66809;52.974;-2.514;2023-04-09T07:07:53;1014.4258142454293;;;7.075904973628996;36.56547127476434
46382;BME280;66809;52.974;-2.514;2023-04-09T07:09:52;1014.4109752725101;;;7.177278168324895;36.48683294836351
46382;BME280;66809;52.974;-2.514;2023-04-09T07:11:52;1014.3959079710291;;;7.279896797357649;36.3919785851389
46382;BME280;66809;52.974;-2.514;2023-04-09T07:13:53;1014.3786598211489;;;7.382685456152536;36.31051078249074